Arianta — MGKU9 — position and weather

sailwx.info

Track history (hours):
 
Tides and Currents Weather Stations Pressure Air Temp Water Temp Dewpoint Dewpoint Depression Visibility Wind Speed Wind Dir Waves Ship Positions

Arianta

Last reported at 2018-Jul-17 12:23 UTC. Time now 2018-Jul-17 13:39 UTC.
Position N 14°34' W 061°06'.

Length 140 m; draft 6.6 m.

Type: Ship. MMSI: 232698000.

Date/timePositionNaut miles runAvg speedWind from/ knotsBaromVisibWave heightAir tempDewpointWater temp
2018-Jul-17 12:23N 14°34' W 061°06'0 0.0
2018-Jul-17 10:59N 14°34' W 061°06'0 0.0
2018-Jul-17 10:23N 14°34' W 061°06'0 0.1
2018-Jul-17 09:45N 14°34' W 061°06'0 1.0
2018-Jul-17 09:23N 14°34' W 061°06'9 8.3
2018-Jul-17 08:18N 14°35' W 061°15'3 8.9
2018-Jul-17 08:00N 14°37' W 061°17'6 8.9
2018-Jul-17 07:21N 14°41' W 061°21'5 8.7
2018-Jul-17 06:48N 14°44' W 061°25'  
2018-Jul-11 14:36N 16°57' W 063°30'  
Track history (hours):
 
Tides and Currents Weather Stations Pressure Air Temp Water Temp Dewpoint Dewpoint Depression Visibility Wind Speed Wind Dir Waves Ship Positions

Arianta

Last reported at 2018-Jul-17 12:23 UTC. Time now 2018-Jul-17 13:39 UTC.
Position N 14°34' W 061°06'.

Length 140 m; draft 6.6 m.

Type: Ship. MMSI: 232698000.

Date/timePositionNaut miles runAvg speedWind from/ knotsBaromVisibWave heightAir tempDewpointWater temp
2018-Jul-17 12:23N 14°34' W 061°06'0 0.0
2018-Jul-17 10:59N 14°34' W 061°06'0 0.0
2018-Jul-17 10:23N 14°34' W 061°06'0 0.1
2018-Jul-17 09:45N 14°34' W 061°06'0 1.0
2018-Jul-17 09:23N 14°34' W 061°06'9 8.3
2018-Jul-17 08:18N 14°35' W 061°15'3 8.9
2018-Jul-17 08:00N 14°37' W 061°17'6 8.9
2018-Jul-17 07:21N 14°41' W 061°21'5 8.7
2018-Jul-17 06:48N 14°44' W 061°25'  
2018-Jul-11 14:36N 16°57' W 063°30'  

Dump ship's entire track history